createdAt,value
2023-04-16T00:01:41.543Z,16.40
2023-04-16T00:04:09.447Z,17.47
2023-04-16T00:06:37.331Z,16.73
2023-04-16T00:09:05.151Z,15.73
2023-04-16T00:11:32.857Z,17.23
2023-04-16T00:14:00.568Z,16.97
2023-04-16T00:16:28.807Z,16.87
2023-04-16T00:18:57.917Z,18.17
2023-04-16T00:21:26.374Z,15.93
2023-04-16T00:23:54.721Z,17.07
2023-04-16T00:26:22.449Z,17.20
2023-04-16T00:28:50.196Z,17.17
2023-04-16T00:31:18.230Z,17.50
2023-04-16T00:33:45.949Z,17.50
2023-04-16T00:36:15.154Z,17.70
2023-04-16T00:38:42.893Z,16.70
2023-04-16T00:41:10.780Z,17.70
2023-04-16T00:43:38.650Z,19.87
2023-04-16T00:46:07.854Z,16.87
2023-04-16T00:48:36.328Z,17.87
2023-04-16T00:51:06.447Z,18.93
2023-04-16T00:53:36.467Z,16.77
2023-04-16T00:56:05.258Z,18.27
2023-04-16T00:58:33.896Z,18.63
2023-04-16T01:01:02.342Z,17.87
2023-04-16T01:03:38.566Z,18.23
2023-04-16T01:06:07.268Z,18.30
2023-04-16T01:08:36.568Z,18.60
2023-04-16T01:11:04.815Z,19.07
2023-04-16T01:13:33.549Z,18.23
2023-04-16T01:16:02.415Z,18.63
2023-04-16T01:18:30.167Z,18.73
2023-04-16T01:20:59.497Z,18.00
2023-04-16T01:23:27.456Z,18.43
2023-04-16T01:25:55.236Z,18.10
2023-04-16T01:28:23.676Z,18.87
2023-04-16T01:30:51.789Z,19.47
2023-04-16T01:33:20.419Z,19.53
2023-04-16T01:35:48.182Z,19.33
2023-04-16T01:38:17.721Z,19.73
2023-04-16T01:40:45.552Z,18.87
2023-04-16T01:43:13.311Z,20.30
2023-04-16T01:45:41.100Z,19.83
2023-04-16T01:48:09.998Z,18.60
2023-04-16T01:50:38.461Z,19.37
2023-04-16T01:53:06.190Z,21.20
2023-04-16T01:55:35.541Z,21.83
2023-04-16T01:58:03.273Z,20.73
2023-04-16T02:00:31.095Z,20.40
2023-04-16T02:02:59.217Z,21.13
2023-04-16T02:05:27.329Z,20.10
2023-04-16T02:07:55.155Z,20.00
2023-04-16T02:10:23.424Z,20.87
2023-04-16T02:12:52.580Z,19.33
2023-04-16T02:15:20.421Z,21.87
2023-04-16T02:17:48.889Z,19.70
2023-04-16T02:20:17.733Z,19.37
2023-04-16T02:22:45.504Z,22.07
2023-04-16T02:25:14.245Z,20.87
2023-04-16T02:27:43.328Z,21.60
2023-04-16T02:30:13.505Z,22.80
2023-04-16T02:32:41.278Z,22.87
2023-04-16T02:35:09.195Z,22.03
2023-04-16T02:37:37.122Z,20.13
2023-04-16T02:40:05.311Z,21.40
2023-04-16T02:42:33.095Z,21.93
2023-04-16T02:45:00.813Z,21.30
2023-04-16T02:47:29.973Z,22.70
2023-04-16T02:49:57.672Z,21.10
2023-04-16T02:52:25.444Z,21.93
2023-04-16T02:54:53.180Z,20.87
2023-04-16T02:57:20.943Z,20.77
2023-04-16T02:59:48.647Z,21.27
2023-04-16T03:02:16.684Z,21.30
2023-04-16T03:04:46.005Z,19.97
2023-04-16T03:07:13.757Z,20.77
2023-04-16T03:09:41.844Z,20.10
2023-04-16T03:12:09.627Z,18.50
2023-04-16T03:14:37.544Z,21.80
2023-04-16T03:17:05.673Z,22.20
2023-04-16T03:19:33.774Z,21.47
2023-04-16T03:22:02.937Z,22.80
2023-04-16T03:24:30.622Z,23.23
2023-04-16T03:26:58.653Z,25.03
2023-04-16T03:29:26.803Z,24.17
2023-04-16T03:31:54.899Z,24.50
2023-04-16T03:34:22.683Z,24.17
2023-04-16T03:36:50.534Z,23.90
2023-04-16T03:39:19.638Z,24.80
2023-04-16T03:41:50.588Z,25.70
2023-04-16T03:44:18.294Z,25.20
2023-04-16T03:46:46.047Z,25.93
2023-04-16T03:49:13.816Z,27.07
2023-04-16T03:51:41.510Z,25.40
2023-04-16T03:54:09.371Z,23.93
2023-04-16T03:56:38.551Z,25.70
2023-04-16T03:59:06.286Z,23.70
2023-04-16T04:01:34.141Z,25.03
2023-04-16T04:04:02.371Z,25.63
2023-04-16T04:06:30.819Z,26.33
2023-04-16T04:08:58.540Z,26.37
2023-04-16T04:11:26.314Z,24.87
2023-04-16T04:13:55.445Z,26.40
2023-04-16T04:16:23.249Z,27.13
2023-04-16T04:18:51.024Z,26.50
2023-04-16T04:21:18.866Z,26.30
2023-04-16T04:23:46.603Z,26.67
2023-04-16T04:26:14.472Z,25.53
2023-04-16T04:28:42.169Z,24.50
2023-04-16T04:31:11.638Z,25.90
2023-04-16T04:33:40.596Z,25.30
2023-04-16T04:36:08.917Z,25.13
2023-04-16T04:38:36.843Z,25.77
2023-04-16T04:41:04.603Z,26.30
2023-04-16T04:43:32.428Z,24.67
2023-04-16T04:46:00.459Z,24.93
2023-04-16T04:48:29.569Z,24.00
2023-04-16T04:50:57.261Z,25.80
2023-04-16T04:53:25.130Z,26.00
2023-04-16T04:55:55.641Z,24.10
2023-04-16T04:58:26.396Z,26.17
2023-04-16T05:00:54.187Z,24.53
2023-04-16T05:03:22.705Z,24.80
2023-04-16T05:05:51.900Z,25.50
2023-04-16T05:08:19.640Z,23.77
2023-04-16T05:10:47.353Z,22.13
2023-04-16T05:13:15.083Z,25.30
2023-04-16T05:15:42.784Z,24.70
2023-04-16T05:18:10.496Z,24.57
2023-04-16T05:20:38.818Z,24.43
2023-04-16T05:23:07.873Z,23.70
2023-04-16T05:25:35.846Z,23.57
2023-04-16T05:28:03.750Z,23.17
2023-04-16T05:30:31.458Z,24.27
2023-04-16T05:32:59.352Z,23.23
2023-04-16T05:35:27.717Z,22.00
2023-04-16T05:37:55.456Z,22.07
2023-04-16T05:40:24.690Z,23.83
2023-04-16T05:42:52.392Z,23.90
2023-04-16T05:45:20.317Z,22.90
2023-04-16T05:47:48.068Z,23.43
2023-04-16T05:50:16.216Z,23.30
2023-04-16T05:52:43.970Z,24.20
2023-04-16T05:55:11.704Z,22.83
2023-04-16T05:57:40.825Z,22.23
2023-04-16T06:00:09.413Z,22.57
2023-04-16T06:02:37.388Z,20.93
2023-04-16T06:05:05.744Z,20.53
2023-04-16T06:07:33.578Z,23.30
2023-04-16T06:10:01.241Z,20.87
2023-04-16T06:12:28.910Z,24.03
2023-04-16T06:14:58.123Z,21.20
2023-04-16T06:17:27.088Z,19.97
2023-04-16T06:19:54.826Z,21.37
2023-04-16T06:22:22.658Z,20.17
2023-04-16T06:24:50.552Z,19.50
2023-04-16T06:27:18.360Z,20.80
2023-04-16T06:29:46.161Z,20.27
2023-04-16T06:32:17.101Z,21.80
2023-04-16T06:34:44.990Z,20.33
2023-04-16T06:37:12.779Z,20.67
2023-04-16T06:39:40.657Z,21.97
2023-04-16T06:42:08.627Z,21.40
2023-04-16T06:44:36.983Z,19.80
2023-04-16T06:47:04.795Z,20.90
2023-04-16T06:49:34.076Z,20.73
2023-04-16T06:52:03.862Z,20.80
2023-04-16T06:54:32.988Z,20.43
2023-04-16T06:57:00.717Z,22.13
2023-04-16T06:59:28.450Z,19.87
2023-04-16T07:01:56.353Z,19.43
2023-04-16T07:04:24.759Z,20.43
2023-04-16T07:06:53.931Z,21.03
2023-04-16T07:09:21.957Z,21.90
2023-04-16T07:11:50.209Z,21.80
2023-04-16T07:14:18.142Z,21.10
2023-04-16T07:16:46.100Z,18.23
2023-04-16T07:19:14.009Z,20.27
2023-04-16T07:21:43.693Z,20.10
2023-04-16T07:24:12.885Z,19.63
2023-04-16T07:26:40.689Z,20.07
2023-04-16T07:29:08.671Z,18.27
2023-04-16T07:31:36.657Z,18.70
2023-04-16T07:34:04.705Z,18.27
2023-04-16T07:36:32.491Z,17.93
2023-04-16T07:39:00.176Z,19.77
2023-04-16T07:41:30.539Z,17.57
2023-04-16T07:43:58.734Z,19.30
2023-04-16T07:46:30.437Z,17.63
2023-04-16T07:49:03.955Z,18.50
2023-04-16T07:51:32.153Z,14.63
2023-04-16T07:53:59.846Z,17.53
2023-04-16T07:56:28.945Z,16.37
2023-04-16T07:58:57.426Z,16.80
2023-04-16T08:01:27.701Z,17.13
2023-04-16T08:03:55.524Z,18.03
2023-04-16T08:06:23.479Z,17.40
2023-04-16T08:08:51.253Z,17.40
2023-04-16T08:11:19.220Z,18.37
2023-04-16T08:13:48.529Z,17.27
2023-04-16T08:16:16.443Z,17.67
2023-04-16T08:18:44.253Z,16.30
2023-04-16T08:21:12.020Z,17.93
2023-04-16T08:23:39.877Z,16.80
2023-04-16T08:26:07.711Z,17.10
2023-04-16T08:28:35.661Z,17.10
2023-04-16T08:31:04.921Z,17.53
2023-04-16T08:33:32.785Z,16.23
2023-04-16T08:36:00.669Z,15.83
2023-04-16T08:38:28.337Z,16.07
2023-04-16T08:40:57.815Z,17.30
2023-04-16T08:43:26.983Z,16.53
2023-04-16T08:45:57.006Z,16.30
2023-04-16T08:48:26.356Z,16.03
2023-04-16T08:50:55.612Z,15.63
2023-04-16T08:53:34.073Z,15.80
2023-04-16T08:56:05.420Z,16.70
2023-04-16T08:58:35.616Z,16.27
2023-04-16T09:01:04.819Z,17.50
2023-04-16T09:03:36.316Z,16.80
2023-04-16T09:06:05.834Z,16.70
2023-04-16T09:08:33.641Z,16.67
2023-04-16T09:11:01.422Z,16.30
2023-04-16T09:13:29.780Z,17.67
2023-04-16T09:15:58.560Z,18.13
2023-04-16T09:18:28.096Z,16.37
2023-04-16T09:20:57.529Z,17.10
2023-04-16T09:23:26.266Z,16.17
2023-04-16T09:25:54.036Z,16.93
2023-04-16T09:28:40.944Z,17.33
2023-04-16T09:31:10.185Z,16.77
2023-04-16T09:33:38.003Z,16.63
2023-04-16T09:36:07.851Z,16.00
2023-04-16T09:38:48.664Z,16.00
2023-04-16T09:41:17.419Z,16.37
2023-04-16T09:43:56.035Z,15.20
2023-04-16T09:46:24.323Z,16.60
2023-04-16T09:48:52.214Z,14.70
2023-04-16T09:51:21.499Z,16.27
2023-04-16T09:53:53.630Z,16.53
2023-04-16T09:56:25.878Z,16.13
2023-04-16T09:58:58.245Z,15.37
2023-04-16T10:01:26.450Z,15.87
2023-04-16T10:03:56.078Z,16.60
2023-04-16T10:06:27.164Z,15.50
2023-04-16T10:08:57.301Z,16.00
2023-04-16T10:11:25.804Z,16.37
2023-04-16T10:13:53.529Z,16.03
2023-04-16T10:16:23.073Z,17.87
2023-04-16T10:18:50.930Z,17.60
2023-04-16T10:21:18.874Z,15.73
2023-04-16T10:23:49.574Z,15.87
2023-04-16T10:26:19.432Z,16.90
2023-04-16T10:28:47.168Z,15.43
2023-04-16T10:31:15.713Z,17.87
2023-04-16T10:33:45.319Z,17.50
2023-04-16T10:36:14.673Z,17.87
2023-04-16T10:38:46.709Z,17.40
2023-04-16T10:41:16.237Z,18.30
2023-04-16T10:43:45.668Z,18.03
2023-04-16T10:46:24.472Z,19.00
2023-04-16T10:48:55.274Z,18.43
2023-04-16T10:51:28.990Z,19.17
2023-04-16T10:53:58.035Z,20.03
2023-04-16T10:56:28.132Z,19.43
2023-04-16T10:58:56.868Z,19.93
2023-04-16T11:01:32.276Z,19.90
2023-04-16T11:04:02.809Z,17.90
2023-04-16T11:06:31.964Z,18.63
2023-04-16T11:08:59.720Z,19.20
2023-04-16T11:11:39.238Z,18.60
2023-04-16T11:14:09.769Z,17.43
2023-04-16T11:16:41.875Z,17.93
2023-04-16T11:19:16.345Z,16.80
2023-04-16T11:21:46.256Z,18.97
2023-04-16T11:24:13.942Z,19.00
2023-04-16T11:26:43.008Z,18.00
2023-04-16T11:29:15.599Z,18.43
2023-04-16T11:31:43.410Z,17.47
2023-04-16T11:34:11.343Z,19.43
2023-04-16T11:36:44.481Z,17.40
2023-04-16T11:39:12.529Z,15.17
2023-04-16T11:41:45.952Z,16.43
2023-04-16T11:44:24.687Z,16.37
2023-04-16T11:46:53.463Z,16.73
2023-04-16T11:49:28.834Z,16.60
2023-04-16T11:51:56.759Z,16.97
2023-04-16T11:54:25.721Z,17.63
2023-04-16T11:56:54.819Z,16.27
2023-04-16T11:59:24.076Z,14.53
2023-04-16T12:01:53.140Z,15.10
2023-04-16T12:04:22.699Z,13.90
2023-04-16T12:07:07.295Z,15.10
2023-04-16T12:09:39.341Z,14.43
2023-04-16T12:12:26.294Z,15.60
2023-04-16T12:14:54.572Z,14.70
2023-04-16T12:17:22.703Z,15.70
2023-04-16T12:19:51.816Z,15.67
2023-04-16T12:22:27.718Z,14.50
2023-04-16T12:24:59.145Z,14.33
2023-04-16T12:27:42.295Z,15.30
2023-04-16T12:30:11.362Z,14.43
2023-04-16T12:32:39.141Z,16.47
2023-04-16T12:35:07.387Z,15.33
2023-04-16T12:37:35.368Z,15.93
2023-04-16T12:40:04.732Z,15.80
2023-04-16T12:42:36.646Z,13.03
2023-04-16T12:45:05.297Z,12.50
2023-04-16T12:47:33.489Z,13.13
2023-04-16T12:50:01.609Z,13.30
2023-04-16T12:52:29.583Z,13.53
2023-04-16T12:54:57.416Z,12.73
2023-04-16T12:57:28.666Z,12.90
2023-04-16T12:59:58.075Z,13.17
2023-04-16T13:02:26.666Z,11.90
2023-04-16T13:04:55.017Z,11.00
2023-04-16T13:07:24.095Z,12.43
2023-04-16T13:09:52.048Z,12.13
2023-04-16T13:12:19.954Z,11.03
2023-04-16T13:14:47.825Z,11.33
2023-04-16T13:17:17.012Z,9.87
2023-04-16T13:19:45.710Z,11.10
2023-04-16T13:22:14.047Z,11.17
2023-04-16T13:24:41.863Z,11.10
2023-04-16T13:27:10.026Z,10.83
2023-04-16T13:29:37.736Z,11.70
2023-04-16T13:32:06.205Z,11.80
2023-04-16T13:34:35.802Z,10.67
2023-04-16T13:37:03.616Z,11.20
2023-04-16T13:39:31.416Z,11.27
2023-04-16T13:41:59.359Z,11.87
2023-04-16T13:44:27.146Z,11.10
2023-04-16T13:46:55.213Z,11.33
2023-04-16T13:49:23.483Z,11.63
2023-04-16T13:51:52.661Z,10.80
2023-04-16T13:54:20.547Z,11.13
2023-04-16T13:56:48.416Z,11.43
2023-04-16T13:59:16.693Z,9.83
2023-04-16T14:01:44.691Z,11.47
2023-04-16T14:04:12.712Z,11.37
2023-04-16T14:06:40.543Z,11.57
2023-04-16T14:09:10.869Z,10.63
2023-04-16T14:11:39.033Z,10.20
2023-04-16T14:14:09.950Z,10.63
2023-04-16T14:16:37.771Z,10.57
2023-04-16T14:19:05.759Z,9.37
2023-04-16T14:21:33.633Z,11.07
2023-04-16T14:24:01.378Z,11.53
2023-04-16T14:26:31.721Z,10.27
2023-04-16T14:28:59.668Z,11.07
2023-04-16T14:31:27.773Z,10.60
2023-04-16T14:33:55.791Z,10.13
2023-04-16T14:36:23.641Z,9.80
2023-04-16T14:38:51.547Z,10.83
2023-04-16T14:41:19.352Z,9.10
2023-04-16T14:43:48.727Z,8.10
2023-04-16T14:46:17.659Z,8.30
2023-04-16T14:48:46.210Z,8.03
2023-04-16T14:51:14.012Z,8.50
2023-04-16T14:53:41.891Z,8.93
2023-04-16T14:56:09.677Z,8.30
2023-04-16T14:58:39.383Z,8.07
2023-04-16T15:01:08.910Z,8.97
2023-04-16T15:03:37.000Z,8.30
2023-04-16T15:06:05.864Z,7.63
2023-04-16T15:08:37.604Z,8.20
2023-04-16T15:11:05.816Z,7.03
2023-04-16T15:13:34.642Z,8.23
2023-04-16T15:16:02.782Z,8.00
2023-04-16T15:18:33.056Z,8.73
2023-04-16T15:21:00.768Z,7.53
2023-04-16T15:23:28.514Z,8.77
2023-04-16T15:25:56.340Z,8.33
2023-04-16T15:28:24.128Z,8.20
2023-04-16T15:30:53.075Z,8.40
2023-04-16T15:33:22.272Z,8.30
2023-04-16T15:35:52.442Z,7.83
2023-04-16T15:38:21.226Z,8.40
2023-04-16T15:40:49.065Z,8.20
2023-04-16T15:43:17.026Z,9.17
2023-04-16T15:45:44.815Z,8.37
2023-04-16T15:48:12.643Z,8.37
2023-04-16T15:50:40.770Z,7.63
2023-04-16T15:53:09.993Z,8.50
2023-04-16T15:55:38.160Z,9.23
2023-04-16T15:58:06.058Z,8.57
2023-04-16T16:00:33.898Z,9.13
2023-04-16T16:03:01.815Z,9.53
2023-04-16T16:05:29.738Z,9.17
2023-04-16T16:07:58.989Z,9.17
2023-04-16T16:10:28.174Z,9.27
2023-04-16T16:12:57.178Z,9.03
2023-04-16T16:15:25.096Z,8.77
2023-04-16T16:17:53.431Z,9.13
2023-04-16T16:20:22.603Z,9.13
2023-04-16T16:22:52.985Z,8.83
2023-04-16T16:25:21.406Z,9.27
2023-04-16T16:27:50.778Z,10.20
2023-04-16T16:30:18.557Z,9.17
2023-04-16T16:32:46.410Z,9.23
2023-04-16T16:35:14.421Z,9.73
2023-04-16T16:37:42.318Z,11.63
2023-04-16T16:40:11.098Z,10.43
2023-04-16T16:42:38.930Z,8.70
2023-04-16T16:45:09.335Z,8.90
2023-04-16T16:47:38.384Z,9.73
2023-04-16T16:50:07.412Z,8.80
2023-04-16T16:52:35.245Z,9.70
2023-04-16T16:55:03.132Z,8.93
2023-04-16T16:57:33.820Z,7.87
2023-04-16T17:00:01.659Z,7.53
2023-04-16T17:02:31.056Z,7.60
2023-04-16T17:04:59.084Z,8.27
2023-04-16T17:07:27.350Z,7.83
2023-04-16T17:09:55.207Z,8.97
2023-04-16T17:12:23.551Z,8.97
2023-04-16T17:14:51.776Z,9.17
2023-04-16T17:17:19.856Z,10.07
2023-04-16T17:19:49.076Z,9.37
2023-04-16T17:22:17.111Z,9.07
2023-04-16T17:24:44.951Z,9.20
2023-04-16T17:27:12.759Z,8.67
2023-04-16T17:29:40.562Z,8.80
2023-04-16T17:32:08.313Z,9.30
2023-04-16T17:34:36.137Z,7.83
2023-04-16T17:37:05.377Z,7.53
2023-04-16T17:39:33.121Z,8.57
2023-04-16T17:42:02.984Z,8.97
2023-04-16T17:44:30.973Z,8.97
2023-04-16T17:46:58.759Z,9.03
2023-04-16T17:49:26.634Z,8.33
2023-04-16T17:51:55.095Z,8.93
2023-04-16T17:54:24.175Z,8.40
2023-04-16T17:56:51.898Z,9.67
2023-04-16T17:59:19.644Z,9.57
2023-04-16T18:01:49.495Z,8.97
2023-04-16T18:04:17.836Z,8.43
2023-04-16T18:06:46.044Z,8.60
2023-04-16T18:09:14.318Z,8.87
2023-04-16T18:11:43.431Z,7.97
2023-04-16T18:14:27.127Z,8.77
2023-04-16T18:17:13.107Z,8.83
2023-04-16T18:19:47.200Z,7.67
2023-04-16T18:22:14.970Z,8.77
2023-04-16T18:24:42.711Z,9.50
2023-04-16T18:27:12.506Z,8.90
2023-04-16T18:29:40.737Z,9.07
2023-04-16T18:32:11.770Z,10.50
2023-04-16T18:34:40.068Z,9.97
2023-04-16T18:37:08.106Z,10.23
2023-04-16T18:39:36.385Z,10.27
2023-04-16T18:42:04.611Z,9.33
2023-04-16T18:44:33.862Z,9.83
2023-04-16T18:47:01.756Z,9.33
2023-04-16T18:49:29.715Z,9.97
2023-04-16T18:51:57.509Z,9.50
2023-04-16T18:54:25.283Z,9.93
2023-04-16T18:56:52.991Z,9.97
2023-04-16T18:59:21.114Z,10.40
2023-04-16T19:01:50.766Z,10.80
2023-04-16T19:04:18.548Z,10.63
2023-04-16T19:06:48.207Z,9.97
2023-04-16T19:09:16.791Z,9.60
2023-04-16T19:11:45.017Z,9.70
2023-04-16T19:14:12.770Z,10.47
2023-04-16T19:16:41.607Z,10.07
2023-04-16T19:19:11.239Z,10.70
2023-04-16T19:21:39.228Z,9.97
2023-04-16T19:24:10.217Z,10.33
2023-04-16T19:26:40.375Z,10.37
2023-04-16T19:29:08.448Z,11.77
2023-04-16T19:31:36.213Z,10.30
2023-04-16T19:34:07.490Z,10.00
2023-04-16T19:36:36.882Z,10.37
2023-04-16T19:39:05.064Z,11.00
2023-04-16T19:41:33.136Z,10.90
2023-04-16T19:44:00.984Z,12.73
2023-04-16T19:46:29.061Z,10.63
2023-04-16T19:48:56.844Z,11.07
2023-04-16T19:51:28.500Z,10.87
2023-04-16T19:54:07.972Z,11.60
2023-04-16T19:56:38.746Z,11.27
2023-04-16T19:59:06.878Z,10.77
2023-04-16T20:01:39.544Z,11.37
2023-04-16T20:04:08.141Z,11.67
2023-04-16T20:06:36.024Z,10.83
2023-04-16T20:09:05.688Z,12.33
2023-04-16T20:11:36.668Z,11.73
2023-04-16T20:14:04.380Z,11.80
2023-04-16T20:16:44.852Z,11.20
2023-04-16T20:19:17.146Z,11.87
2023-04-16T20:21:45.477Z,11.77
2023-04-16T20:24:17.315Z,10.93
2023-04-16T20:26:45.171Z,11.47
2023-04-16T20:29:27.235Z,10.43
2023-04-16T20:31:57.859Z,11.40
2023-04-16T20:34:26.673Z,12.17
2023-04-16T20:36:58.005Z,10.00
2023-04-16T20:39:37.657Z,11.23
2023-04-16T20:42:10.124Z,10.30
2023-04-16T20:44:43.698Z,11.07
2023-04-16T20:47:15.954Z,10.83
2023-04-16T20:49:46.415Z,11.83
2023-04-16T20:52:17.714Z,10.20
2023-04-16T20:54:54.157Z,11.97
2023-04-16T20:57:23.506Z,11.27
2023-04-16T20:59:51.434Z,9.97
2023-04-16T21:02:20.140Z,11.33
2023-04-16T21:04:48.429Z,10.93
2023-04-16T21:07:16.686Z,10.57
2023-04-16T21:09:44.618Z,10.30
2023-04-16T21:12:13.737Z,10.57
2023-04-16T21:14:41.520Z,9.93
2023-04-16T21:17:09.382Z,10.43
2023-04-16T21:19:37.192Z,10.67
2023-04-16T21:22:04.992Z,10.90
2023-04-16T21:24:33.153Z,10.60
2023-04-16T21:27:01.696Z,10.47
2023-04-16T21:29:31.421Z,10.50
2023-04-16T21:31:59.368Z,10.93
2023-04-16T21:34:27.315Z,10.37
2023-04-16T21:36:55.090Z,10.80
2023-04-16T21:39:24.440Z,10.87
2023-04-16T21:41:54.328Z,11.60
2023-04-16T21:44:24.924Z,10.27
2023-04-16T21:46:54.165Z,10.67
2023-04-16T21:49:21.989Z,10.90
2023-04-16T21:51:50.162Z,11.20
2023-04-16T21:54:20.428Z,10.73
2023-04-16T21:56:48.367Z,11.03
2023-04-16T21:59:16.050Z,11.30
2023-04-16T22:01:43.921Z,11.27
2023-04-16T22:04:13.127Z,10.90
2023-04-16T22:06:41.051Z,10.47
2023-04-16T22:09:09.559Z,10.87
2023-04-16T22:11:38.225Z,11.70
2023-04-16T22:14:08.761Z,10.93
2023-04-16T22:16:36.957Z,11.93
2023-04-16T22:19:04.760Z,11.87
2023-04-16T22:21:33.894Z,10.87
2023-04-16T22:24:01.647Z,11.80
2023-04-16T22:26:29.696Z,10.97
2023-04-16T22:28:57.533Z,12.80
2023-04-16T22:31:25.282Z,10.43
2023-04-16T22:33:53.205Z,11.37
2023-04-16T22:36:21.102Z,11.73
2023-04-16T22:38:50.277Z,11.87
2023-04-16T22:41:18.079Z,12.13
2023-04-16T22:43:50.090Z,11.87
2023-04-16T22:46:22.352Z,10.00
2023-04-16T22:48:51.153Z,10.70
2023-04-16T22:51:19.023Z,12.07
2023-04-16T22:53:46.774Z,12.30
2023-04-16T22:56:15.900Z,11.37
2023-04-16T22:58:43.743Z,11.53
2023-04-16T23:01:11.920Z,11.17
2023-04-16T23:03:39.989Z,10.53
2023-04-16T23:06:08.012Z,10.67
2023-04-16T23:08:35.914Z,10.63
2023-04-16T23:11:03.727Z,11.17
2023-04-16T23:13:32.851Z,11.63
2023-04-16T23:16:00.694Z,10.97
2023-04-16T23:18:28.435Z,11.50
2023-04-16T23:20:56.193Z,10.90
2023-04-16T23:23:23.891Z,11.53
2023-04-16T23:25:53.489Z,10.80
2023-04-16T23:28:21.497Z,10.83
2023-04-16T23:30:53.649Z,11.20
2023-04-16T23:33:21.702Z,10.80
2023-04-16T23:35:49.450Z,11.10
2023-04-16T23:38:17.135Z,10.70
2023-04-16T23:40:45.022Z,10.83
2023-04-16T23:43:13.057Z,11.90
2023-04-16T23:45:40.876Z,12.07
2023-04-16T23:48:10.545Z,10.80
2023-04-16T23:50:38.278Z,11.83
2023-04-16T23:53:06.124Z,11.33
2023-04-16T23:55:33.951Z,11.30
2023-04-16T23:58:01.652Z,12.43
